Date,TemperatureHighF,TemperatureAvgF,TemperatureLowF,DewpointHighF,DewpointAvgF,DewpointLowF,HumidityHigh,HumidityAvg,HumidityLow,PressureMaxIn,PressureMinIn,WindSpeedMaxMPH,WindSpeedAvgMPH,GustSpeedMaxMPH,PrecipitationSumIn
2014-1-1,64,64,64,-100,-100,-100,0,0,100,0.00,40.00,0,-999,0,0.00
2014-1-2,62,54,45,-100,-100,-100,0,0,100,0.00,40.00,0,-999,0,0.00
2014-1-3,55,49,41,-100,-100,-100,0,0,100,0.00,40.00,0,-999,0,0.00
2014-1-4,67,59,39,-100,-100,-100,0,0,100,0.00,40.00,0,-999,0,0.00
2014-1-5,71,58,42,-100,-100,-100,0,0,100,0.00,40.00,0,-999,0,0.00
2014-1-8,51,44,35,-100,-100,-100,0,0,100,0.00,40.00,0,-999,0,0.00
2014-1-9,73,58,51,-100,-100,-100,0,0,100,0.00,40.00,0,-999,0,0.00
2014-1-10,71,67,60,-100,-100,-100,0,0,100,0.00,40.00,0,-999,0,0.00
2014-1-11,76,68,60,-100,-100,-100,0,0,100,0.00,40.00,0,-999,0,0.00
2014-1-12,74,67,47,-100,-100,-100,0,0,100,0.00,40.00,0,-999,0,0.00
2014-1-13,76,67,55,-100,-100,-100,0,0,100,0.00,40.00,0,-999,0,0.00
2014-1-14,71,57,43,-100,-100,-100,0,0,100,0.00,40.00,0,-999,0,0.00
2014-1-15,62,53,47,-100,-100,-100,0,0,100,0.00,40.00,0,-999,0,0.00
2014-1-16,69,55,41,-100,-100,-100,0,0,100,0.00,40.00,0,-999,0,0.00
2014-1-17,64,52,47,-100,-100,-100,0,0,100,0.00,40.00,0,-999,0,0.00
2014-1-18,66,58,52,-100,-100,-100,0,0,100,0.00,40.00,0,-999,0,0.00
2014-1-19,69,57,51,-100,-100,-100,0,0,100,0.00,40.00,0,-999,0,0.00
2014-1-20,76,67,46,-100,-100,-100,0,0,100,0.00,40.00,0,-999,0,0.00
2014-1-21,66,58,44,-100,-100,-100,0,0,100,0.00,40.00,0,-999,0,0.00
2014-1-22,64,49,41,-100,-100,-100,0,0,100,0.00,40.00,0,-999,0,0.00
2014-1-23,58,55,51,-100,-100,-100,0,0,100,0.00,40.00,0,-999,0,0.00
2014-1-25,60,52,48,-100,-100,-100,0,0,100,0.00,40.00,0,-999,0,0.00
2014-1-26,71,64,47,-100,-100,-100,0,0,100,0.00,40.00,0,-999,0,0.00
2014-1-27,66,58,47,-100,-100,-100,0,0,100,0.00,40.00,0,-999,0,0.00
2014-1-30,59,53,49,-100,-100,-100,0,0,100,0.00,40.00,0,-999,0,0.00
2014-1-31,73,65,52,-100,-100,-100,0,0,100,0.00,40.00,0,-999,0,0.00
2014-2-1,78,71,57,-100,-100,-100,0,0,100,0.00,40.00,0,-999,0,0.00
2014-2-2,73,65,47,-100,-100,-100,0,0,100,0.00,40.00,0,-999,0,0.00
2014-2-3,47,47,47,-100,-100,-100,0,0,100,0.00,40.00,0,-999,0,0.00
2014-2-4,66,59,49,-100,-100,-100,0,0,100,0.00,40.00,0,-999,0,0.00
2014-4-1,80,77,70,-100,-100,-100,0,0,100,0.00,40.00,0,-999,0,0.00
2014-4-2,85,76,73,-100,-100,-100,0,0,100,0.00,40.00,0,-999,0,0.00
2014-4-3,84,78,74,-100,-100,-100,0,0,100,0.00,40.00,0,-999,0,0.00
2014-4-4,81,73,65,-100,-100,-100,0,0,100,0.00,40.00,0,-999,0,0.00
2014-4-5,74,66,63,-100,-100,-100,0,0,100,0.00,40.00,0,-999,0,0.00
2014-4-6,76,66,58,-100,-100,-100,0,0,100,0.00,40.00,0,-999,0,0.00
2014-4-7,77,67,59,-100,-100,-100,0,0,100,0.00,40.00,0,-999,0,0.00
2014-4-8,74,65,59,-100,-100,-100,0,0,100,0.00,40.00,0,-999,0,0.00
2014-4-9,80,71,57,-100,-100,-100,0,0,100,0.00,40.00,0,-999,0,0.00
2014-4-10,80,67,57,-100,-100,-100,0,0,100,0.00,40.00,0,-999,0,0.00
2014-4-11,83,70,63,-100,-100,-100,0,0,100,0.00,40.00,0,-999,0,0.00
2014-4-12,85,77,65,-100,-100,-100,0,0,100,0.00,40.00,0,-999,0,0.00
2014-4-13,82,75,71,-100,-100,-100,0,0,100,0.00,40.00,0,-999,0,0.00
2014-4-14,83,70,54,-100,-100,-100,0,0,100,0.00,40.00,0,-999,0,0.00
2014-4-15,67,57,47,-100,-100,-100,0,0,100,0.00,40.00,0,-999,0,0.00
2014-4-16,70,61,47,-100,-100,-100,0,0,100,0.00,40.00,0,-999,0,0.00
2014-4-17,69,62,58,-100,-100,-100,0,0,100,0.00,40.00,0,-999,0,0.00
2014-4-18,79,71,62,-100,-100,-100,0,0,100,0.00,40.00,0,-999,0,0.00
2014-4-19,85,74,62,-100,-100,-100,0,0,100,0.00,40.00,0,-999,0,0.00
2014-4-20,87,74,63,-100,-100,-100,0,0,100,0.00,40.00,0,-999,0,0.00
2014-4-21,85,74,62,-100,-100,-100,0,0,100,0.00,40.00,0,-999,0,0.00
2014-4-22,88,77,69,-100,-100,-100,0,0,100,0.00,40.00,0,-999,0,0.00
2014-4-23,87,77,68,-100,-100,-100,0,0,100,0.00,40.00,0,-999,0,0.00
2014-4-24,85,76,68,-100,-100,-100,0,0,100,0.00,40.00,0,-999,0,0.00
2014-4-25,91,79,70,-100,-100,-100,0,0,100,0.00,40.00,0,-999,0,0.00
2014-4-26,87,78,73,-100,-100,-100,0,0,100,0.00,40.00,0,-999,0,0.00
2014-4-27,87,81,77,-100,-100,-100,0,0,100,0.00,40.00,0,-999,0,0.00
2014-4-28,88,81,77,-100,-100,-100,0,0,100,0.00,40.00,0,-999,0,0.00
2014-4-29,90,80,72,-100,-100,-100,0,0,100,0.00,40.00,0,-999,0,0.00
2014-4-30,76,69,60,-100,-100,-100,0,0,100,0.00,40.00,0,-999,0,0.00
2014-5-1,77,66,54,-100,-100,-100,0,0,100,0.00,40.00,0,-999,0,0.00
2014-5-2,82,71,58,-100,-100,-100,0,0,100,0.00,40.00,0,-999,0,0.00
2014-5-3,88,76,62,-100,-100,-100,0,0,100,0.00,40.00,0,-999,0,0.00
2014-5-4,89,77,65,-100,-100,-100,0,0,100,0.00,40.00,0,-999,0,0.00
2014-5-5,83,71,62,-100,-100,-100,0,0,100,0.00,40.00,0,-999,0,0.00
2014-5-13,81,79,75,-100,-100,-100,0,0,100,0.00,40.00,0,-999,0,0.00
2014-5-14,73,68,63,-100,-100,-100,0,0,100,0.00,40.00,0,-999,0,0.00
2014-5-15,81,69,55,-100,-100,-100,0,0,100,0.00,40.00,0,-999,0,0.00
2014-5-16,86,73,62,-100,-100,-100,0,0,100,0.00,40.00,0,-999,0,0.00
2014-5-17,85,74,65,-100,-100,-100,0,0,100,0.00,40.00,0,-999,0,0.00
2014-5-18,87,78,68,-100,-100,-100,0,0,100,0.00,40.00,0,-999,0,0.00
2014-5-19,89,75,67,-100,-100,-100,0,0,100,0.00,40.00,0,-999,0,0.00
2014-5-20,90,80,70,-100,-100,-100,0,0,100,0.00,40.00,0,-999,0,0.00
2014-5-21,90,82,71,-100,-100,-100,0,0,100,0.00,40.00,0,-999,0,0.00
2014-5-22,90,78,69,-100,-100,-100,0,0,100,0.00,40.00,0,-999,0,0.00
2014-5-23,91,79,69,-100,-100,-100,0,0,100,0.00,40.00,0,-999,0,0.00
2014-5-24,91,80,71,-100,-100,-100,0,0,100,0.00,40.00,0,-999,0,0.00
2014-5-25,91,79,72,-100,-100,-100,0,0,100,0.00,40.00,0,-999,0,0.00
2014-5-26,88,79,73,-100,-100,-100,0,0,100,0.00,40.00,0,-999,0,0.00
2014-5-27,82,78,74,-100,-100,-100,0,0,100,0.00,40.00,0,-999,0,0.00
2014-5-28,82,77,73,-100,-100,-100,0,0,100,0.00,40.00,0,-999,0,0.00
2014-5-29,90,79,73,-100,-100,-100,0,0,100,0.00,40.00,0,-999,0,0.00
2014-5-30,92,80,73,-100,-100,-100,0,0,100,0.00,40.00,0,-999,0,0.00
2014-5-31,91,82,76,-100,-100,-100,0,0,100,0.00,40.00,0,-999,0,0.00
2014-6-1,88,81,76,-100,-100,-100,0,0,100,0.00,40.00,0,-999,0,0.00
2014-6-2,91,83,76,-100,-100,-100,0,0,100,0.00,40.00,0,-999,0,0.00
2014-6-3,90,84,76,-100,-100,-100,0,0,100,0.00,40.00,0,-999,0,0.00
2014-6-4,88,82,77,-100,-100,-100,0,0,100,0.00,40.00,0,-999,0,0.00
2014-6-5,92,82,76,-100,-100,-100,0,0,100,0.00,40.00,0,-999,0,0.00
2014-6-6,94,84,76,-100,-100,-100,0,0,100,0.00,40.00,0,-999,0,0.00
2014-6-7,95,85,77,-100,-100,-100,0,0,100,0.00,40.00,0,-999,0,0.00
2014-6-8,91,83,78,-100,-100,-100,0,0,100,0.00,40.00,0,-999,0,0.00
2014-6-9,91,82,76,-100,-100,-100,0,0,100,0.00,40.00,0,-999,0,0.00
2014-6-10,91,82,73,-100,-100,-100,0,0,100,0.00,40.00,0,-999,0,0.00
2014-6-11,93,82,72,-100,-100,-100,0,0,100,0.00,40.00,0,-999,0,0.00
2014-6-12,93,86,77,-100,-100,-100,0,0,100,0.00,40.00,0,-999,0,0.00
2014-6-13,91,81,76,-100,-100,-100,0,0,100,0.00,40.00,0,-999,0,0.00
2014-6-14,93,85,75,-100,-100,-100,0,0,100,0.00,40.00,0,-999,0,0.00
2014-6-15,92,85,77,-100,-100,-100,0,0,100,0.00,40.00,0,-999,0,0.00
2014-6-16,93,86,79,-100,-100,-100,0,0,100,0.00,40.00,0,-999,0,0.00
2014-6-17,94,86,79,-100,-100,-100,0,0,100,0.00,40.00,0,-999,0,0.00
2014-6-18,94,87,79,-100,-100,-100,0,0,100,0.00,40.00,0,-999,0,0.00
2014-6-19,96,86,79,-100,-100,-100,0,0,100,0.00,40.00,0,-999,0,0.00
2014-6-20,92,83,76,-100,-100,-100,0,0,100,0.00,40.00,0,-999,0,0.00
2014-6-21,93,82,77,-100,-100,-100,0,0,100,0.00,40.00,0,-999,0,0.00
2014-6-22,91,84,79,-100,-100,-100,0,0,100,0.00,40.00,0,-999,0,0.00
2014-6-23,94,85,80,-100,-100,-100,0,0,100,0.00,40.00,0,-999,0,0.00
2014-6-24,90,81,76,-100,-100,-100,0,0,100,0.00,40.00,0,-999,0,0.00
2014-6-25,85,79,76,-100,-100,-100,0,0,100,0.00,40.00,0,-999,0,0.00
2014-6-26,87,80,76,-100,-100,-100,0,0,100,0.00,40.00,0,-999,0,0.00
2014-6-27,77,76,73,-100,-100,-100,0,0,100,0.00,40.00,0,-999,0,0.00
2014-6-28,90,83,77,-100,-100,-100,0,0,100,0.00,40.00,0,-999,0,0.00
2014-6-29,93,86,80,-100,-100,-100,0,0,100,0.00,40.00,0,-999,0,0.00
2014-6-30,93,86,80,-100,-100,-100,0,0,100,0.00,40.00,0,-999,0,0.00
2014-7-1,94,87,80,-100,-100,-100,0,0,100,0.00,40.00,0,-999,0,0.00
2014-7-2,96,86,79,-100,-100,-100,0,0,100,0.00,40.00,0,-999,0,0.00
2014-7-3,94,86,74,-100,-100,-100,0,0,100,0.00,40.00,0,-999,0,0.00
2014-7-4,91,81,74,-100,-100,-100,0,0,100,0.00,40.00,0,-999,0,0.00
2014-7-5,91,83,72,-100,-100,-100,0,0,100,0.00,40.00,0,-999,0,0.00
2014-7-6,94,84,75,-100,-100,-100,0,0,100,0.00,40.00,0,-999,0,0.00
2014-7-7,94,84,76,-100,-100,-100,0,0,100,0.00,40.00,0,-999,0,0.00
2014-7-8,91,84,79,-100,-100,-100,0,0,100,0.00,40.00,0,-999,0,0.00
2014-7-9,94,88,80,-100,-100,-100,0,0,100,0.00,40.00,0,-999,0,0.00
2014-7-10,95,87,79,-100,0,200,0,0,100,0.00,40.00,0,0,0,0.00
2014-7-11,96,86,79,-100,0,200,0,0,100,0.00,40.00,0,0,0,0.00
2014-7-12,94,83,77,-100,0,200,0,0,100,0.00,40.00,0,0,0,0.00
2014-7-13,94,83,76,-100,0,200,0,0,100,0.00,40.00,0,0,0,0.00
2014-7-14,93,84,76,-100,0,200,0,0,100,0.00,40.00,0,0,0,0.00
2014-7-15,86,82,80,-100,0,200,0,0,100,0.00,40.00,0,0,0,0.00
2014-7-16,93,83,77,-100,0,200,0,0,100,0.00,40.00,0,0,0,0.00
2014-7-17,85,80,75,-100,0,200,0,0,100,0.00,40.00,0,0,0,0.00
2014-7-18,85,80,77,-100,0,200,0,0,100,0.00,40.00,0,0,0,0.00
2014-7-19,85,79,76,-100,0,200,0,0,100,0.00,40.00,0,0,0,0.00
2014-7-20,91,84,78,-100,0,200,0,0,100,0.00,40.00,0,0,0,0.00
2014-7-21,94,88,78,-100,0,200,0,0,100,0.00,40.00,0,0,0,0.00
2014-7-22,93,87,80,-100,0,200,0,0,100,0.00,40.00,0,0,0,0.00
2014-7-23,94,83,78,-100,0,200,0,0,100,0.00,40.00,0,0,0,0.00
2014-7-24,93,81,76,-100,0,200,0,0,100,0.00,40.00,0,0,0,0.00
2014-7-25,96,85,79,-100,0,200,0,0,100,0.00,40.00,0,0,0,0.00
2014-7-26,96,87,80,-100,0,200,0,0,100,0.00,40.00,0,0,0,0.00
2014-7-27,96,86,80,-100,0,200,0,0,100,0.00,40.00,0,0,0,0.00
2014-7-28,95,88,80,-100,0,200,0,0,100,0.00,40.00,0,0,0,0.00
2014-7-29,91,85,80,-100,0,200,0,0,100,0.00,40.00,0,0,0,0.00
2014-7-30,94,84,75,-100,0,200,0,0,100,0.00,40.00,0,0,0,0.00
2014-7-31,91,80,76,-100,0,200,0,0,100,0.00,40.00,0,0,0,0.00
2014-8-1,91,84,79,-100,0,200,0,0,100,0.00,40.00,0,0,0,0.00
2014-8-2,87,79,76,-100,0,200,0,0,100,0.00,40.00,0,0,0,0.00
2014-8-3,90,83,79,-100,0,200,0,0,100,0.00,40.00,0,0,0,0.00
2014-8-4,91,82,78,-100,0,200,0,0,100,0.00,40.00,0,0,0,0.00
2014-8-5,97,87,79,-100,0,200,0,0,100,0.00,40.00,0,0,0,0.00
2014-8-6,97,86,80,-100,0,200,0,0,100,0.00,40.00,0,0,0,0.00
2014-8-7,87,84,83,-100,0,200,0,0,100,0.00,40.00,0,0,0,0.00
2014-8-8,96,86,81,-100,0,200,0,0,100,0.00,40.00,0,0,0,0.00
2014-8-9,98,86,80,-100,0,200,0,0,100,0.00,40.00,0,0,0,0.00
2014-8-10,92,85,80,-100,0,200,0,0,100,0.00,40.00,0,0,0,0.00
2014-8-11,96,87,79,-100,0,200,0,0,100,0.00,40.00,0,0,0,0.00
2014-8-12,94,85,76,-100,0,200,0,0,100,0.00,40.00,0,0,0,0.00
2014-8-13,93,82,76,-100,0,200,0,0,100,0.00,40.00,0,0,0,0.00
2014-8-14,91,80,73,-100,0,200,0,0,100,0.00,40.00,0,0,0,0.00
2014-8-15,94,82,74,-100,0,200,0,0,100,0.00,40.00,0,0,0,0.00
2014-8-16,96,87,79,-100,0,200,0,0,100,0.00,40.00,0,0,0,0.00
2014-8-17,94,84,80,-100,0,200,0,0,100,0.00,40.00,0,0,0,0.00
2014-8-18,93,84,80,-100,0,200,0,0,100,0.00,40.00,0,0,0,0.00
2014-8-19,91,82,76,-100,0,200,0,0,100,0.00,40.00,0,0,0,0.00
2014-8-20,95,84,76,-100,0,200,0,0,100,0.00,40.00,0,0,0,0.00
2014-8-21,95,84,80,-100,0,200,0,0,100,0.00,40.00,0,0,0,0.00
2014-8-22,97,85,79,-100,0,200,0,0,100,0.00,40.00,0,0,0,0.00
2014-8-23,97,87,80,-100,0,200,0,0,100,0.00,40.00,0,0,0,0.00
2014-8-24,97,86,80,-100,0,200,0,0,100,0.00,40.00,0,0,0,0.00
2014-8-25,97,86,79,-100,0,200,0,0,100,0.00,40.00,0,0,0,0.00
2014-8-26,91,81,77,-100,0,200,0,0,100,0.00,40.00,0,0,0,0.00
2014-8-27,92,83,76,-100,0,200,0,0,100,0.00,40.00,0,0,0,0.00
2014-8-28,91,83,78,-100,0,200,0,0,100,0.00,40.00,0,0,0,0.00
2014-8-29,86,82,78,-100,0,200,0,0,100,0.00,40.00,0,0,0,0.00
2014-8-30,80,78,76,-100,0,200,0,0,100,0.00,40.00,0,0,0,0.00
2014-8-31,91,82,77,-100,0,200,0,0,100,0.00,40.00,0,0,0,0.00
2014-9-1,93,85,80,-100,0,200,0,0,100,0.00,40.00,0,0,0,0.00
2014-9-2,94,85,80,-100,0,200,0,0,100,0.00,40.00,0,0,0,0.00
2014-9-3,94,84,79,-100,0,200,0,0,100,0.00,40.00,0,0,0,0.00
2014-9-4,94,83,77,-100,0,200,0,0,100,0.00,40.00,0,0,0,0.00
2014-9-5,92,83,80,-100,0,200,0,0,100,0.00,40.00,0,0,0,0.00
2014-9-6,93,82,76,-100,0,200,0,0,100,0.00,40.00,0,0,0,0.00
2014-9-7,88,79,76,-100,0,200,0,0,100,0.00,40.00,0,0,0,0.00
2014-9-8,94,84,77,-100,0,200,0,0,100,0.00,40.00,0,0,0,0.00
2014-9-9,95,86,80,-100,0,200,0,0,100,0.00,40.00,0,0,0,0.00
2014-9-10,94,84,79,-100,0,200,0,0,100,0.00,40.00,0,0,0,0.00
2014-9-11,95,84,79,-100,0,200,0,0,100,0.00,40.00,0,0,0,0.00
2014-9-12,91,81,77,-100,0,200,0,0,100,0.00,40.00,0,0,0,0.00
2014-9-13,79,75,71,-100,0,200,0,0,100,0.00,40.00,0,0,0,0.00
2014-9-14,81,73,69,-100,0,200,0,0,100,0.00,40.00,0,0,0,0.00
2014-9-15,92,81,73,-100,0,200,0,0,100,0.00,40.00,0,0,0,0.00
2014-9-16,89,81,77,-100,0,200,0,0,100,0.00,40.00,0,0,0,0.00
2014-9-17,90,81,76,-100,0,200,0,0,100,0.00,40.00,0,0,0,0.00
2014-9-18,83,80,78,-100,0,200,0,0,100,0.00,40.00,0,0,0,0.00
2014-9-19,91,81,77,-100,0,200,0,0,100,0.00,40.00,0,0,0,0.00
2014-9-20,91,81,74,-100,0,200,0,0,100,0.00,40.00,0,0,0,0.00
2014-9-21,92,80,73,-100,0,200,0,0,100,0.00,40.00,0,0,0,0.00
2014-9-22,88,79,73,-100,0,200,0,0,100,0.00,40.00,0,0,0,0.00
2014-9-23,87,75,65,-100,0,200,0,0,100,0.00,40.00,0,0,0,0.00
2014-9-24,89,77,66,-100,0,200,0,0,100,0.00,40.00,0,0,0,0.00
2014-9-25,85,79,73,-100,0,200,0,0,100,0.00,40.00,0,0,0,0.00
2014-9-26,87,77,72,-100,0,200,0,0,100,0.00,40.00,0,0,0,0.00
2014-9-27,86,77,73,-100,0,200,0,0,100,0.00,40.00,0,0,0,0.00
2014-9-28,83,78,76,-100,0,200,0,0,100,0.00,40.00,0,0,0,0.00
2014-9-29,87,79,75,-100,0,200,0,0,100,0.00,40.00,0,0,0,0.00
2014-9-30,91,81,76,-100,0,200,0,0,100,0.00,40.00,0,0,0,0.00
2014-10-1,91,83,77,-100,0,200,0,0,100,0.00,40.00,0,0,0,0.00
2014-10-2,94,84,80,-100,0,200,0,0,100,0.00,40.00,0,0,0,0.00
2014-10-3,85,76,70,-100,0,200,0,0,100,0.00,40.00,0,0,0,0.00
2014-10-4,77,68,62,-100,0,200,0,0,100,0.00,40.00,0,0,0,0.00
2014-10-5,87,72,59,-100,0,200,0,0,100,0.00,40.00,0,0,0,0.00
2014-10-6,83,71,68,-100,0,200,0,0,100,0.00,40.00,0,0,0,0.00
2014-10-7,92,79,69,-100,0,200,0,0,100,0.00,40.00,0,0,0,0.00
2014-10-8,93,82,74,-100,0,200,0,0,100,0.00,40.00,0,0,0,0.00
2014-10-9,92,81,75,-100,0,200,0,0,100,0.00,40.00,0,0,0,0.00
2014-10-10,91,84,76,-100,0,200,0,0,100,0.00,40.00,0,0,0,0.00
2014-10-11,92,80,74,-100,0,200,0,0,100,0.00,40.00,0,0,0,0.00
2014-10-12,91,80,73,-100,0,200,0,0,100,0.00,40.00,0,0,0,0.00
2014-10-13,84,74,66,-100,0,200,0,0,100,0.00,40.00,0,0,0,0.00
2014-10-14,78,67,61,-100,0,200,0,0,100,0.00,40.00,0,0,0,0.00
2014-10-15,83,67,58,-100,0,200,0,0,100,0.00,40.00,0,0,0,0.00
2014-10-16,90,72,62,-100,0,200,0,0,100,0.00,40.00,0,0,0,0.00
2014-10-17,88,75,66,-100,0,200,0,0,100,0.00,40.00,0,0,0,0.00
2014-10-18,90,75,66,-100,0,200,0,0,100,0.00,40.00,0,0,0,0.00
2014-10-19,82,72,65,-100,0,200,0,0,100,0.00,40.00,0,0,0,0.00
2014-10-20,83,68,62,-100,0,200,0,0,100,0.00,40.00,0,0,0,0.00
2014-10-21,84,69,62,-100,0,200,0,0,100,0.00,40.00,0,0,0,0.00
2014-10-22,83,72,65,-100,0,200,0,0,100,0.00,40.00,0,0,0,0.00
2014-10-23,76,64,58,-100,0,200,0,0,100,0.00,40.00,0,0,0,0.00
2014-10-24,80,66,56,-100,0,200,0,0,100,0.00,40.00,0,0,0,0.00
2014-10-25,85,74,58,-100,0,200,0,0,100,0.00,40.00,0,0,0,0.00
2014-10-26,87,74,61,-100,0,200,0,0,100,0.00,40.00,0,0,0,0.00
2014-10-27,87,75,64,-100,0,200,0,0,100,0.00,40.00,0,0,0,0.00
2014-10-28,86,76,70,-100,0,200,0,0,100,0.00,40.00,0,0,0,0.00
2014-10-29,85,75,68,-100,0,200,0,0,100,0.00,40.00,0,0,0,0.00
2014-10-30,79,67,58,-100,0,200,0,0,100,0.00,40.00,0,0,0,0.00
2014-10-31,79,65,58,-100,0,200,0,0,100,0.00,40.00,0,0,0,0.00
2014-11-1,66,57,47,-100,0,200,0,0,100,0.00,40.00,0,0,0,0.00
2014-11-2,71,54,44,-100,0,200,0,0,100,0.00,40.00,0,0,0,0.00
2014-11-3,78,69,55,-100,0,200,0,0,100,0.00,40.00,0,0,0,0.00
2014-11-4,85,72,65,-100,0,200,0,0,100,0.00,40.00,0,0,0,0.00
2014-11-5,83,74,68,-100,0,200,0,0,100,0.00,40.00,0,0,0,0.00
2014-11-6,73,70,62,-100,0,200,0,0,100,0.00,40.00,0,0,0,0.00
2014-11-7,67,59,53,-100,0,200,0,0,100,0.00,40.00,0,0,0,0.00
2014-11-8,69,62,54,-100,0,200,0,0,100,0.00,40.00,0,0,0,0.00
2014-11-9,74,63,54,-100,0,200,0,0,100,0.00,40.00,0,0,0,0.00
2014-11-10,80,70,55,-100,0,200,0,0,100,0.00,40.00,0,0,0,0.00
2014-11-11,83,73,57,-100,0,200,0,0,100,0.00,40.00,0,0,0,0.00
2014-11-12,56,54,52,-100,0,200,0,0,100,0.00,40.00,0,0,0,0.00
2014-11-13,52,48,44,-100,0,200,0,0,100,0.00,40.00,0,0,0,0.00
2014-11-14,54,47,40,-100,0,200,0,0,100,0.00,40.00,0,0,0,0.00
2014-11-15,59,53,45,-100,0,200,0,0,100,0.00,40.00,0,0,0,0.00
2014-11-16,73,68,55,-100,0,200,0,0,100,0.00,40.00,0,0,0,0.00
2014-11-17,55,49,43,-100,0,200,0,0,100,0.00,40.00,0,0,0,0.00
2014-11-18,56,47,40,-100,0,200,0,0,100,0.00,40.00,0,0,0,0.00
2014-11-19,69,54,40,-100,0,200,0,0,100,0.00,40.00,0,0,0,0.00
2014-11-20,76,62,54,-100,0,200,0,0,100,0.00,40.00,0,0,0,0.00
2014-11-21,76,70,63,-100,0,200,0,0,100,0.00,40.00,0,0,0,0.00
2014-11-22,76,67,60,-100,0,200,0,0,100,0.00,40.00,0,0,0,0.00
2014-11-23,76,70,66,-100,0,200,0,0,100,0.00,40.00,0,0,0,0.00
2014-11-24,67,63,55,-100,0,200,0,0,100,0.00,40.00,0,0,0,0.00
2014-11-25,63,56,49,-100,0,200,0,0,100,0.00,40.00,0,0,0,0.00
2014-11-26,74,66,47,-100,0,200,0,0,100,0.00,40.00,0,0,0,0.00
2014-11-27,67,62,52,-100,0,200,0,0,100,0.00,40.00,0,0,0,0.00
2014-11-28,69,59,44,-100,0,200,0,0,100,0.00,40.00,0,0,0,0.00
2014-11-29,80,69,59,-100,0,200,0,0,100,0.00,40.00,0,0,0,0.00
2014-11-30,82,70,64,-100,0,200,0,0,100,0.00,40.00,0,0,0,0.00
2014-12-1,80,70,63,-100,0,200,0,0,100,0.00,40.00,0,0,0,0.00
2014-12-2,63,60,57,-100,0,200,0,0,100,0.00,40.00,0,0,0,0.00
2014-12-3,74,64,55,-100,0,200,0,0,100,0.00,40.00,0,0,0,0.00
2014-12-4,71,63,58,-100,0,200,0,0,100,0.00,40.00,0,0,0,0.00
2014-12-5,82,75,70,-100,0,200,0,0,100,0.00,40.00,0,0,0,0.00
2014-12-6,79,74,67,-100,0,200,0,0,100,0.00,40.00,0,0,0,0.00
2014-12-7,65,59,54,-100,0,200,0,0,100,0.00,40.00,0,0,0,0.00
2014-12-8,69,57,47,-100,0,200,0,0,100,0.00,40.00,0,0,0,0.00
2014-12-9,73,62,54,-100,0,200,0,0,100,0.00,40.00,0,0,0,0.00
2014-12-10,65,57,49,-100,0,200,0,0,100,0.00,40.00,0,0,0,0.00
2014-12-11,71,59,52,-100,0,200,0,0,100,0.00,40.00,0,0,0,0.00
2014-12-12,73,63,54,-100,0,200,0,0,100,0.00,40.00,0,0,0,0.00
2014-12-13,76,63,56,-100,0,200,0,0,100,0.00,40.00,0,0,0,0.00
2014-12-14,73,64,57,-100,0,200,0,0,100,0.00,40.00,0,0,0,0.00
2014-12-15,77,71,65,-100,0,200,0,0,100,0.00,40.00,0,0,0,0.00
2014-12-16,67,60,51,-100,0,200,0,0,100,0.00,40.00,0,0,0,0.00
2014-12-17,65,56,47,-100,0,200,0,0,100,0.00,40.00,0,0,0,0.00